Time,TemperatureF,DewpointF,PressureIn,WindDirection,WindDirectionDegrees,WindSpeedMPH,WindSpeedGustMPH,Humidity,HourlyPrecipIn,Conditions,Clouds,dailyrainin,SoftwareType,DateUTC
2013-02-14 00:02:00,30.0,28.0,29.58,North,4,7.0,13.0,93,0.00,,,0.09,,2013-02-14 06:02:00,
2013-02-14 00:11:00,30.0,28.0,29.59,North,5,8.0,13.0,93,0.00,,,0.09,,2013-02-14 06:11:00,
2013-02-14 00:21:00,30.0,28.0,29.59,North,5,8.0,13.0,93,0.00,,,0.09,,2013-02-14 06:21:00,
2013-02-14 00:31:00,30.0,28.0,29.60,North,7,10.0,15.0,93,0.00,,,0.09,,2013-02-14 06:31:00,
2013-02-14 00:42:00,30.0,28.0,29.60,North,7,10.0,15.0,93,0.00,,,0.09,,2013-02-14 06:42:00,
2013-02-14 00:52:00,30.0,28.0,29.61,North,9,11.0,20.0,93,0.00,,,0.09,,2013-02-14 06:52:00,
2013-02-14 01:01:00,29.0,27.0,29.61,North,7,14.0,22.0,92,0.00,,,0.09,,2013-02-14 07:01:00,
2013-02-14 01:11:00,29.0,27.0,29.61,North,7,14.0,22.0,92,0.00,,,0.09,,2013-02-14 07:11:00,
2013-02-14 01:21:00,28.0,26.0,29.62,North,8,10.0,18.0,92,0.00,,,0.09,,2013-02-14 07:21:00,
2013-02-14 01:31:00,28.0,26.0,29.62,North,9,9.0,13.0,92,0.00,,,0.09,,2013-02-14 07:31:00,
2013-02-14 01:41:00,28.0,26.0,29.62,North,9,9.0,13.0,92,0.00,,,0.09,,2013-02-14 07:41:00,
2013-02-14 01:51:00,28.0,26.0,29.63,North,7,9.0,14.0,92,0.00,,,0.09,,2013-02-14 07:51:00,
2013-02-14 02:01:00,28.0,26.0,29.63,North,9,7.0,13.0,92,0.00,,,0.09,,2013-02-14 08:01:00,
2013-02-14 02:11:00,28.0,26.0,29.63,North,9,7.0,13.0,92,0.00,,,0.09,,2013-02-14 08:11:00,
2013-02-14 02:21:00,28.0,26.0,29.63,North,7,7.0,12.0,92,0.00,,,0.09,,2013-02-14 08:21:00,
2013-02-14 02:32:00,28.0,25.0,29.65,North,3,6.0,9.0,90,0.00,,,0.09,,2013-02-14 08:32:00,
2013-02-14 02:43:00,28.0,25.0,29.65,North,3,6.0,9.0,90,0.00,,,0.09,,2013-02-14 08:43:00,
2013-02-14 02:52:00,28.0,25.0,29.65,NNW,338,5.0,8.0,90,0.00,,,0.09,,2013-02-14 08:52:00,
2013-02-14 03:02:00,28.0,25.0,29.66,NW,319,8.0,11.0,89,0.00,,,0.09,,2013-02-14 09:02:00,
2013-02-14 03:11:00,28.0,25.0,29.66,NW,319,8.0,11.0,89,0.00,,,0.09,,2013-02-14 09:11:00,
2013-02-14 03:21:00,28.0,25.0,29.66,NW,317,8.0,11.0,90,0.00,,,0.09,,2013-02-14 09:21:00,
2013-02-14 03:31:00,27.0,24.0,29.67,NW,313,10.0,13.0,89,0.00,,,0.09,,2013-02-14 09:31:00,
2013-02-14 03:42:00,27.0,24.0,29.67,NW,313,10.0,13.0,89,0.00,,,0.09,,2013-02-14 09:42:00,
2013-02-14 03:51:00,27.0,24.0,29.67,NW,310,9.0,13.0,89,0.00,,,0.09,,2013-02-14 09:51:00,
2013-02-14 04:02:00,27.0,24.0,29.67,NW,310,7.0,9.0,88,0.00,,,0.09,,2013-02-14 10:02:00,
2013-02-14 04:11:00,26.0,23.0,29.68,WNW,302,6.0,8.0,89,0.00,,,0.09,,2013-02-14 10:11:00,
2013-02-14 04:21:00,26.0,23.0,29.68,WNW,302,6.0,8.0,89,0.00,,,0.09,,2013-02-14 10:21:00,
2013-02-14 04:31:00,26.0,23.0,29.69,WNW,297,6.0,8.0,89,0.00,,,0.09,,2013-02-14 10:31:00,
2013-02-14 04:42:00,26.0,23.0,29.69,WNW,297,6.0,8.0,89,0.00,,,0.09,,2013-02-14 10:42:00,
2013-02-14 04:52:00,26.0,23.0,29.70,WNW,299,6.0,9.0,89,0.00,,,0.09,,2013-02-14 10:52:00,
2013-02-14 05:01:00,25.0,22.0,29.70,WNW,294,6.0,8.0,89,0.00,,,0.09,,2013-02-14 11:01:00,
2013-02-14 05:11:00,25.0,22.0,29.70,WNW,294,6.0,8.0,89,0.00,,,0.09,,2013-02-14 11:11:00,
2013-02-14 05:21:00,26.0,23.0,29.71,WNW,302,6.0,8.0,89,0.00,,,0.09,,2013-02-14 11:21:00,
2013-02-14 05:32:00,26.0,23.0,29.71,NW,307,6.0,9.0,88,0.00,,,0.09,,2013-02-14 11:32:00,
2013-02-14 05:42:00,26.0,23.0,29.71,NW,307,6.0,9.0,88,0.00,,,0.09,,2013-02-14 11:42:00,
2013-02-14 05:52:00,26.0,23.0,29.72,NW,314,4.0,6.0,87,0.00,,,0.09,,2013-02-14 11:52:00,
2013-02-14 06:02:00,26.0,23.0,29.72,NW,311,3.0,5.0,87,0.00,,,0.09,,2013-02-14 12:02:00,
2013-02-14 06:11:00,26.0,23.0,29.72,NW,311,3.0,5.0,87,0.00,,,0.09,,2013-02-14 12:11:00,
2013-02-14 06:22:00,25.0,22.0,29.73,WNW,285,4.0,6.0,87,0.00,,,0.09,,2013-02-14 12:22:00,
2013-02-14 06:32:00,24.0,21.0,29.73,WNW,285,4.0,6.0,87,0.00,,,0.09,,2013-02-14 12:32:00,
2013-02-14 06:42:00,24.0,21.0,29.73,WNW,285,4.0,6.0,87,0.00,,,0.09,,2013-02-14 12:42:00,
2013-02-14 06:53:00,23.0,20.0,29.74,WNW,284,5.0,7.0,88,0.00,,,0.09,,2013-02-14 12:53:00,
2013-02-14 07:01:00,24.0,21.0,29.75,WNW,286,6.0,9.0,88,0.00,,,0.09,,2013-02-14 13:01:00,
2013-02-14 07:11:00,24.0,21.0,29.75,WNW,286,6.0,9.0,88,0.00,,,0.09,,2013-02-14 13:11:00,
2013-02-14 07:21:00,24.0,21.0,29.75,WNW,285,6.0,9.0,88,0.00,,,0.09,,2013-02-14 13:21:00,
2013-02-14 07:31:00,23.0,20.0,29.76,WNW,283,5.0,7.0,87,0.00,,,0.09,,2013-02-14 13:31:00,
2013-02-14 07:41:00,23.0,20.0,29.76,WNW,283,5.0,7.0,87,0.00,,,0.09,,2013-02-14 13:41:00,
2013-02-14 07:51:00,22.0,19.0,29.76,West,279,4.0,7.0,88,0.00,,,0.09,,2013-02-14 13:51:00,
2013-02-14 08:01:00,21.0,18.0,29.77,WNW,286,3.0,5.0,89,0.00,,,0.09,,2013-02-14 14:01:00,
2013-02-14 08:11:00,21.0,18.0,29.77,WNW,286,3.0,5.0,89,0.00,,,0.09,,2013-02-14 14:11:00,
2013-02-14 08:21:00,21.0,19.0,29.78,West,277,4.0,6.0,90,0.00,,,0.09,,2013-02-14 14:21:00,
2013-02-14 08:31:00,22.0,20.0,29.78,WNW,283,4.0,6.0,90,0.00,,,0.09,,2013-02-14 14:31:00,
2013-02-14 08:41:00,22.0,20.0,29.78,WNW,283,4.0,6.0,90,0.00,,,0.09,,2013-02-14 14:41:00,
2013-02-14 08:52:00,23.0,21.0,29.78,WNW,285,5.0,8.0,90,0.00,,,0.09,,2013-02-14 14:52:00,
2013-02-14 09:01:00,24.0,21.0,29.79,WNW,298,4.0,9.0,89,0.00,,,0.09,,2013-02-14 15:01:00,
2013-02-14 09:11:00,24.0,21.0,29.79,WNW,298,4.0,9.0,89,0.00,,,0.09,,2013-02-14 15:11:00,
2013-02-14 09:21:00,25.0,22.0,29.79,WNW,303,6.0,9.0,87,0.00,,,0.09,,2013-02-14 15:21:00,
2013-02-14 09:31:00,26.0,23.0,29.80,NW,304,7.0,10.0,87,0.00,,,0.09,,2013-02-14 15:31:00,
2013-02-14 09:41:00,26.0,23.0,29.80,NW,304,7.0,10.0,87,0.00,,,0.09,,2013-02-14 15:41:00,
2013-02-14 09:51:00,26.0,22.0,29.80,NW,326,7.0,13.0,85,0.00,,,0.09,,2013-02-14 15:51:00,
2013-02-14 10:01:00,27.0,23.0,29.81,NW,322,10.0,14.0,83,0.00,,,0.09,,2013-02-14 16:01:00,
2013-02-14 10:11:00,26.0,21.0,29.82,NW,311,13.0,17.0,81,0.00,,,0.09,,2013-02-14 16:11:00,
2013-02-14 10:21:00,26.0,21.0,29.82,NW,311,13.0,17.0,81,0.00,,,0.09,,2013-02-14 16:21:00,
2013-02-14 10:32:00,25.0,20.0,29.83,NW,323,13.0,19.0,80,0.00,,,0.09,,2013-02-14 16:32:00,
2013-02-14 10:41:00,25.0,20.0,29.83,NW,323,13.0,19.0,80,0.00,,,0.09,,2013-02-14 16:41:00,
2013-02-14 10:52:00,25.0,20.0,29.83,NW,324,13.0,19.0,82,0.00,,,0.09,,2013-02-14 16:52:00,
2013-02-14 11:01:00,25.0,20.0,29.84,NW,307,11.0,18.0,82,0.00,,,0.09,,2013-02-14 17:01:00,
2013-02-14 11:11:00,25.0,20.0,29.84,NW,307,11.0,18.0,82,0.00,,,0.09,,2013-02-14 17:11:00,
2013-02-14 11:21:00,25.0,20.0,29.84,WNW,300,10.0,14.0,82,0.00,,,0.08,,2013-02-14 17:21:00,
2013-02-14 11:31:00,25.0,20.0,29.85,NW,309,10.0,15.0,81,0.00,,,0.08,,2013-02-14 17:31:00,
2013-02-14 11:41:00,25.0,20.0,29.85,NW,309,10.0,15.0,81,0.00,,,0.08,,2013-02-14 17:41:00,
2013-02-14 11:52:00,25.0,20.0,29.85,NW,304,11.0,15.0,80,0.00,,,0.08,,2013-02-14 17:52:00,
2013-02-14 12:01:00,26.0,20.0,29.85,NW,318,11.0,16.0,78,0.01,,,0.09,,2013-02-14 18:01:00,
2013-02-14 12:11:00,26.0,20.0,29.85,NW,318,11.0,16.0,78,0.01,,,0.09,,2013-02-14 18:11:00,
2013-02-14 12:22:00,27.0,20.0,29.86,NW,320,10.0,15.0,75,0.01,,,0.09,,2013-02-14 18:22:00,
2013-02-14 12:32:00,27.0,19.0,29.86,NW,323,10.0,13.0,72,0.02,,,0.10,,2013-02-14 18:32:00,
2013-02-14 12:42:00,27.0,19.0,29.86,NW,323,10.0,13.0,72,0.02,,,0.10,,2013-02-14 18:42:00,
2013-02-14 12:51:00,29.0,20.0,29.86,WNW,302,10.0,13.0,68,0.03,,,0.11,,2013-02-14 18:51:00,
2013-02-14 13:02:00,28.0,18.0,29.86,NW,306,12.0,19.0,67,0.03,,,0.12,,2013-02-14 19:02:00,
2013-02-14 13:11:00,28.0,18.0,29.86,NW,306,12.0,19.0,67,0.03,,,0.12,,2013-02-14 19:11:00,
2013-02-14 13:21:00,29.0,19.0,29.86,WNW,295,11.0,16.0,66,0.03,,,0.12,,2013-02-14 19:21:00,
2013-02-14 13:31:00,29.0,18.0,29.87,WNW,300,12.0,17.0,62,0.03,,,0.12,,2013-02-14 19:31:00,
2013-02-14 13:41:00,29.0,18.0,29.87,WNW,300,12.0,17.0,62,0.03,,,0.12,,2013-02-14 19:41:00,
2013-02-14 13:51:00,29.0,16.0,29.87,WNW,298,14.0,20.0,59,0.02,,,0.12,,2013-02-14 19:51:00,
2013-02-14 14:01:00,28.0,14.0,29.88,NNW,330,15.0,20.0,54,0.01,,,0.11,,2013-02-14 20:01:00,
2013-02-14 14:11:00,27.0,12.0,29.88,NW,310,15.0,23.0,53,0.01,,,0.10,,2013-02-14 20:11:00,
2013-02-14 14:21:00,27.0,12.0,29.88,NW,310,15.0,23.0,53,0.01,,,0.10,,2013-02-14 20:21:00,
2013-02-14 14:31:00,27.0,12.0,29.89,NW,308,15.0,22.0,52,0.00,,,0.09,,2013-02-14 20:31:00,
2013-02-14 14:41:00,27.0,12.0,29.89,NW,308,15.0,22.0,52,0.00,,,0.09,,2013-02-14 20:41:00,
2013-02-14 14:52:00,26.0,9.0,29.90,NW,317,17.0,25.0,48,0.00,,,0.09,,2013-02-14 20:52:00,
2013-02-14 15:02:00,26.0,7.0,29.91,NW,305,17.0,24.0,44,0.00,,,0.08,,2013-02-14 21:02:00,
2013-02-14 15:11:00,26.0,7.0,29.91,NW,305,17.0,24.0,44,0.00,,,0.08,,2013-02-14 21:11:00,
2013-02-14 15:21:00,25.0,5.0,29.92,NW,305,17.0,24.0,42,0.01,,,0.09,,2013-02-14 21:21:00,
2013-02-14 15:31:00,25.0,5.0,29.93,NW,319,17.0,26.0,42,0.01,,,0.08,,2013-02-14 21:31:00,
2013-02-14 15:42:00,25.0,5.0,29.93,NW,319,17.0,26.0,42,0.01,,,0.08,,2013-02-14 21:42:00,
2013-02-14 15:51:00,25.0,5.0,29.95,NW,310,17.0,23.0,41,0.01,,,0.08,,2013-02-14 21:51:00,
2013-02-14 16:02:00,24.0,4.0,29.96,NW,318,15.0,26.0,41,0.01,,,0.07,,2013-02-14 22:02:00,
2013-02-14 16:11:00,24.0,3.0,29.96,NW,315,14.0,20.0,39,0.00,,,0.07,,2013-02-14 22:11:00,
2013-02-14 16:21:00,24.0,3.0,29.96,NW,315,14.0,20.0,39,0.00,,,0.07,,2013-02-14 22:21:00,
2013-02-14 16:31:00,24.0,2.0,29.97,NW,319,14.0,20.0,38,0.00,,,0.07,,2013-02-14 22:31:00,
2013-02-14 16:42:00,24.0,2.0,29.97,NW,319,14.0,20.0,38,0.00,,,0.07,,2013-02-14 22:42:00,
2013-02-14 16:51:00,24.0,2.0,29.98,NW,307,12.0,21.0,38,0.00,,,0.07,,2013-02-14 22:51:00,
2013-02-14 17:01:00,24.0,2.0,29.99,NW,321,12.0,17.0,38,0.00,,,0.07,,2013-02-14 23:01:00,
2013-02-14 17:11:00,24.0,2.0,29.99,NW,321,12.0,17.0,38,0.00,,,0.07,,2013-02-14 23:11:00,
2013-02-14 17:21:00,24.0,2.0,29.99,NW,321,12.0,17.0,38,0.00,,,0.07,,2013-02-14 23:21:00,
2013-02-14 17:31:00,24.0,2.0,30.01,NW,308,13.0,19.0,38,0.00,,,0.06,,2013-02-14 23:31:00,
2013-02-14 17:41:00,24.0,2.0,30.01,NW,308,13.0,19.0,38,0.00,,,0.06,,2013-02-14 23:41:00,
2013-02-14 17:52:00,23.0,2.0,30.02,NW,305,12.0,18.0,40,0.00,,,0.06,,2013-02-14 23:52:00,
2013-02-14 18:01:00,23.0,3.0,30.03,NW,307,12.0,17.0,42,0.00,,,0.06,,2013-02-15 00:01:00,
2013-02-14 18:11:00,23.0,3.0,30.03,NW,307,12.0,17.0,42,0.00,,,0.06,,2013-02-15 00:11:00,
2013-02-14 18:21:00,22.0,2.0,30.04,NW,315,10.0,14.0,42,0.00,,,0.06,,2013-02-15 00:21:00,
2013-02-14 18:31:00,22.0,3.0,30.04,NW,316,9.0,12.0,43,0.00,,,0.06,,2013-02-15 00:31:00,
2013-02-14 18:42:00,22.0,3.0,30.04,NW,316,9.0,12.0,43,0.00,,,0.06,,2013-02-15 00:42:00,
2013-02-14 18:51:00,21.0,3.0,30.05,NW,316,8.0,11.0,44,0.00,,,0.06,,2013-02-15 00:51:00,
2013-02-14 19:02:00,21.0,3.0,30.06,NW,308,9.0,14.0,45,0.00,,,0.06,,2013-02-15 01:02:00,
2013-02-14 19:11:00,21.0,3.0,30.06,NW,308,9.0,14.0,45,0.00,,,0.06,,2013-02-15 01:11:00,
2013-02-14 19:21:00,21.0,4.0,30.06,NW,309,10.0,14.0,47,0.00,,,0.06,,2013-02-15 01:21:00,
2013-02-14 19:31:00,20.0,4.0,30.06,NW,307,7.0,12.0,48,0.00,,,0.06,,2013-02-15 01:31:00,
2013-02-14 19:41:00,20.0,4.0,30.06,NW,307,7.0,12.0,48,0.00,,,0.06,,2013-02-15 01:41:00,
2013-02-14 19:51:00,20.0,4.0,30.07,NW,308,8.0,14.0,48,0.00,,,0.06,,2013-02-15 01:51:00,
2013-02-14 20:01:00,19.0,3.0,30.08,WNW,300,7.0,10.0,50,0.00,,,0.06,,2013-02-15 02:01:00,
2013-02-14 20:11:00,19.0,3.0,30.08,WNW,300,7.0,10.0,50,0.00,,,0.06,,2013-02-15 02:11:00,
2013-02-14 20:21:00,19.0,4.0,30.09,WNW,298,8.0,12.0,51,0.00,,,0.06,,2013-02-15 02:21:00,
2013-02-14 20:31:00,19.0,5.0,30.09,WNW,294,8.0,12.0,53,0.00,,,0.06,,2013-02-15 02:31:00,
2013-02-14 20:41:00,19.0,5.0,30.09,WNW,294,8.0,12.0,53,0.00,,,0.06,,2013-02-15 02:41:00,
2013-02-14 20:52:00,19.0,5.0,30.09,WNW,299,10.0,14.0,53,0.00,,,0.06,,2013-02-15 02:52:00,
2013-02-14 21:02:00,18.0,3.0,30.10,WNW,303,12.0,17.0,52,0.00,,,0.06,,2013-02-15 03:02:00,
2013-02-14 21:11:00,18.0,3.0,30.10,WNW,303,12.0,17.0,52,0.00,,,0.06,,2013-02-15 03:11:00,
2013-02-14 21:22:00,18.0,4.0,30.11,WNW,298,9.0,16.0,53,0.00,,,0.06,,2013-02-15 03:22:00,
2013-02-14 21:32:00,17.0,3.0,30.11,WNW,296,8.0,12.0,53,0.00,,,0.06,,2013-02-15 03:32:00,
2013-02-14 21:42:00,17.0,3.0,30.11,WNW,296,8.0,12.0,53,0.00,,,0.06,,2013-02-15 03:42:00,
2013-02-14 21:51:00,17.0,3.0,30.11,WNW,296,7.0,12.0,53,0.00,,,0.06,,2013-02-15 03:51:00,
2013-02-14 22:01:00,16.0,2.0,30.11,WNW,295,5.0,8.0,54,0.00,,,0.06,,2013-02-15 04:01:00,
2013-02-14 22:11:00,16.0,2.0,30.11,WNW,295,5.0,8.0,54,0.00,,,0.06,,2013-02-15 04:11:00,
2013-02-14 22:21:00,15.0,2.0,30.11,WNW,290,5.0,6.0,55,0.00,,,0.06,,2013-02-15 04:21:00,
2013-02-14 22:32:00,15.0,2.0,30.12,WNW,286,5.0,7.0,55,0.00,,,0.06,,2013-02-15 04:32:00,
2013-02-14 22:42:00,15.0,2.0,30.12,WNW,286,5.0,7.0,55,0.00,,,0.06,,2013-02-15 04:42:00,
2013-02-14 22:51:00,15.0,2.0,30.12,WNW,289,5.0,7.0,55,0.00,,,0.06,,2013-02-15 04:51:00,
2013-02-14 23:02:00,13.0,1.0,30.12,WNW,284,3.0,5.0,58,0.00,,,0.06,,2013-02-15 05:02:00,
2013-02-14 23:12:00,13.0,1.0,30.12,WNW,284,3.0,5.0,58,0.00,,,0.06,,2013-02-15 05:12:00,
2013-02-14 23:22:00,12.0,0.0,30.12,West,272,3.0,5.0,59,0.00,,,0.06,,2013-02-15 05:22:00,
2013-02-14 23:32:00,12.0,1.0,30.12,West,265,3.0,6.0,61,0.00,,,0.06,,2013-02-15 05:32:00,
2013-02-14 23:41:00,12.0,1.0,30.12,West,265,3.0,6.0,61,0.00,,,0.06,,2013-02-15 05:41:00,
2013-02-14 23:52:00,13.0,2.0,30.13,WSW,258,4.0,6.0,60,0.00,,,0.06,,2013-02-15 05:52:00,